sensor_id;sensor_type;location;lat;lon;timestamp;pressure;altitude;pressure_sealevel;temperature;humidity
12789;BME280;6458;42.710;23.192;2024-03-02T00:01:36;93264.59;;;8.07;100.00
12789;BME280;6458;42.710;23.192;2024-03-02T00:04:04;93263.78;;;8.06;100.00
12789;BME280;6458;42.710;23.192;2024-03-02T00:06:32;93274.25;;;8.03;100.00
12789;BME280;6458;42.710;23.192;2024-03-02T00:08:59;93278.66;;;8.01;100.00
12789;BME280;6458;42.710;23.192;2024-03-02T00:11:34;93271.94;;;7.97;100.00
12789;BME280;6458;42.710;23.192;2024-03-02T00:14:02;93274.47;;;7.99;100.00
12789;BME280;6458;42.710;23.192;2024-03-02T00:16:31;93271.13;;;7.97;100.00
12789;BME280;6458;42.710;23.192;2024-03-02T00:19:01;93275.84;;;8.06;100.00
12789;BME280;6458;42.710;23.192;2024-03-02T00:21:29;93264.59;;;8.07;100.00
12789;BME280;6458;42.710;23.192;2024-03-02T00:23:57;93279.53;;;8.19;100.00
12789;BME280;6458;42.710;23.192;2024-03-02T00:26:24;93279.41;;;8.03;100.00
12789;BME280;6458;42.710;23.192;2024-03-02T00:28:54;93270.69;;;7.87;100.00
12789;BME280;6458;42.710;23.192;2024-03-02T00:31:22;93275.31;;;7.80;100.00
12789;BME280;6458;42.710;23.192;2024-03-02T00:33:52;93279.13;;;7.72;100.00
12789;BME280;6458;42.710;23.192;2024-03-02T00:36:24;93260.94;;;7.75;100.00
12789;BME280;6458;42.710;23.192;2024-03-02T00:38:52;93268.13;;;7.87;100.00
12789;BME280;6458;42.710;23.192;2024-03-02T00:41:21;93265.53;;;7.87;100.00
12789;BME280;6458;42.710;23.192;2024-03-02T00:43:57;93257.78;;;7.87;100.00
12789;BME280;6458;42.710;23.192;2024-03-02T00:46:24;93258.22;;;7.78;100.00
12789;BME280;6458;42.710;23.192;2024-03-02T00:48:54;93259.75;;;7.82;100.00
12789;BME280;6458;42.710;23.192;2024-03-02T00:51:22;93258.44;;;7.92;100.00
12789;BME280;6458;42.710;23.192;2024-03-02T00:53:49;93248.69;;;7.97;100.00
12789;BME280;6458;42.710;23.192;2024-03-02T00:56:17;93263.03;;;8.04;100.00
12789;BME280;6458;42.710;23.192;2024-03-02T00:58:44;93263.97;;;8.21;100.00
12789;BME280;6458;42.710;23.192;2024-03-02T01:01:11;93265.59;;;8.23;100.00
12789;BME280;6458;42.710;23.192;2024-03-02T01:03:38;93256.44;;;8.16;100.00
12789;BME280;6458;42.710;23.192;2024-03-02T01:06:06;93265.63;;;8.22;100.00
12789;BME280;6458;42.710;23.192;2024-03-02T01:08:34;93256.28;;;8.19;100.00
12789;BME280;6458;42.710;23.192;2024-03-02T01:11:01;93254.81;;;8.32;100.00
12789;BME280;6458;42.710;23.192;2024-03-02T01:13:28;93253.06;;;8.33;100.00
12789;BME280;6458;42.710;23.192;2024-03-02T01:15:55;93245.38;;;8.31;100.00
12789;BME280;6458;42.710;23.192;2024-03-02T01:18:23;93246.34;;;8.29;100.00
12789;BME280;6458;42.710;23.192;2024-03-02T01:20:50;93248.63;;;8.35;100.00
12789;BME280;6458;42.710;23.192;2024-03-02T01:23:19;93245.22;;;8.34;100.00
12789;BME280;6458;42.710;23.192;2024-03-02T01:25:47;93241.63;;;8.39;100.00
12789;BME280;6458;42.710;23.192;2024-03-02T01:28:14;93237.75;;;8.28;100.00
12789;BME280;6458;42.710;23.192;2024-03-02T01:30:41;93239.94;;;8.19;100.00
12789;BME280;6458;42.710;23.192;2024-03-02T01:33:08;93237.59;;;8.14;100.00
12789;BME280;6458;42.710;23.192;2024-03-02T01:35:36;93240.88;;;8.18;100.00
12789;BME280;6458;42.710;23.192;2024-03-02T01:38:03;93236.16;;;8.26;100.00
12789;BME280;6458;42.710;23.192;2024-03-02T01:40:33;93232.44;;;8.31;100.00
12789;BME280;6458;42.710;23.192;2024-03-02T01:43:00;93226.97;;;8.39;100.00
12789;BME280;6458;42.710;23.192;2024-03-02T01:45:27;93230.28;;;8.41;100.00
12789;BME280;6458;42.710;23.192;2024-03-02T01:47:54;93224.06;;;8.45;100.00
12789;BME280;6458;42.710;23.192;2024-03-02T01:50:25;93230.75;;;8.49;100.00
12789;BME280;6458;42.710;23.192;2024-03-02T01:52:52;93227.19;;;8.52;100.00
12789;BME280;6458;42.710;23.192;2024-03-02T01:55:20;93227.19;;;8.52;100.00
12789;BME280;6458;42.710;23.192;2024-03-02T01:57:48;93229.84;;;8.50;100.00
12789;BME280;6458;42.710;23.192;2024-03-02T02:00:16;93221.88;;;8.55;100.00
12789;BME280;6458;42.710;23.192;2024-03-02T02:02:44;93220.91;;;8.57;100.00
12789;BME280;6458;42.710;23.192;2024-03-02T02:05:12;93232.59;;;8.65;100.00
12789;BME280;6458;42.710;23.192;2024-03-02T02:07:40;93219.69;;;8.65;100.00
12789;BME280;6458;42.710;23.192;2024-03-02T02:10:07;93225.72;;;8.64;100.00
12789;BME280;6458;42.710;23.192;2024-03-02T02:12:38;93225.53;;;8.68;100.00
12789;BME280;6458;42.710;23.192;2024-03-02T02:15:21;93229.34;;;8.61;100.00
12789;BME280;6458;42.710;23.192;2024-03-02T02:17:48;93226.75;;;8.61;100.00
12789;BME280;6458;42.710;23.192;2024-03-02T02:20:18;93222.25;;;8.65;100.00
12789;BME280;6458;42.710;23.192;2024-03-02T02:23:00;93218.06;;;8.62;100.00
12789;BME280;6458;42.710;23.192;2024-03-02T02:25:27;93227.59;;;8.62;100.00
12789;BME280;6458;42.710;23.192;2024-03-02T02:27:55;93223.91;;;8.66;100.00
12789;BME280;6458;42.710;23.192;2024-03-02T02:30:23;93219.53;;;8.68;100.00
12789;BME280;6458;42.710;23.192;2024-03-02T02:32:53;93224.16;;;8.61;100.00
12789;BME280;6458;42.710;23.192;2024-03-02T02:35:20;93223.16;;;8.64;100.00
12789;BME280;6458;42.710;23.192;2024-03-02T02:37:50;93223.16;;;8.64;100.00
12789;BME280;6458;42.710;23.192;2024-03-02T02:40:20;93217.00;;;8.66;100.00
12789;BME280;6458;42.710;23.192;2024-03-02T02:42:47;93220.41;;;8.67;100.00
12789;BME280;6458;42.710;23.192;2024-03-02T02:45:15;93225.88;;;8.61;100.00
12789;BME280;6458;42.710;23.192;2024-03-02T02:47:42;93224.22;;;8.59;100.00
12789;BME280;6458;42.710;23.192;2024-03-02T02:50:10;93222.72;;;8.55;100.00
12789;BME280;6458;42.710;23.192;2024-03-02T02:52:39;93227.34;;;8.49;100.00
12789;BME280;6458;42.710;23.192;2024-03-02T02:55:08;93222.69;;;8.38;100.00
12789;BME280;6458;42.710;23.192;2024-03-02T02:57:38;93225.66;;;8.48;100.00
12789;BME280;6458;42.710;23.192;2024-03-02T03:00:07;93228.22;;;8.48;100.00
12789;BME280;6458;42.710;23.192;2024-03-02T03:02:40;93221.09;;;8.53;100.00
12789;BME280;6458;42.710;23.192;2024-03-02T03:05:09;93230.38;;;8.57;100.00
12789;BME280;6458;42.710;23.192;2024-03-02T03:07:36;93228.94;;;8.51;100.00
12789;BME280;6458;42.710;23.192;2024-03-02T03:10:06;93221.19;;;8.51;100.00
12789;BME280;6458;42.710;23.192;2024-03-02T03:12:33;93233.97;;;8.54;100.00
12789;BME280;6458;42.710;23.192;2024-03-02T03:15:02;93224.22;;;8.59;100.00
12789;BME280;6458;42.710;23.192;2024-03-02T03:17:30;93231.38;;;8.72;100.00
12789;BME280;6458;42.710;23.192;2024-03-02T03:19:57;93230.53;;;8.71;100.00
12789;BME280;6458;42.710;23.192;2024-03-02T03:22:23;93235.63;;;8.73;100.00
12789;BME280;6458;42.710;23.192;2024-03-02T03:24:50;93234.25;;;8.66;100.00
12789;BME280;6458;42.710;23.192;2024-03-02T03:27:17;93221.97;;;8.71;100.00
12789;BME280;6458;42.710;23.192;2024-03-02T03:29:45;93223.41;;;8.76;100.00
12789;BME280;6458;42.710;23.192;2024-03-02T03:32:13;93223.47;;;8.75;100.00
12789;BME280;6458;42.710;23.192;2024-03-02T03:34:40;93226.81;;;8.77;100.00
12789;BME280;6458;42.710;23.192;2024-03-02T03:37:07;93231.63;;;8.67;100.00
12789;BME280;6458;42.710;23.192;2024-03-02T03:42:26;93234.13;;;8.69;100.00
12789;BME280;6458;42.710;23.192;2024-03-02T03:44:53;93233.28;;;8.68;100.00
12789;BME280;6458;42.710;23.192;2024-03-02T03:47:22;93226.50;;;8.66;100.00
12789;BME280;6458;42.710;23.192;2024-03-02T03:49:48;93223.00;;;8.67;100.00
12789;BME280;6458;42.710;23.192;2024-03-02T03:52:15;93229.72;;;8.71;100.00
12789;BME280;6458;42.710;23.192;2024-03-02T03:54:42;93226.06;;;8.75;100.00
12789;BME280;6458;42.710;23.192;2024-03-02T03:57:10;93221.03;;;8.72;100.00
12789;BME280;6458;42.710;23.192;2024-03-02T03:59:37;93230.59;;;8.70;100.00
12789;BME280;6458;42.710;23.192;2024-03-02T04:02:03;93232.44;;;8.68;100.00
12789;BME280;6458;42.710;23.192;2024-03-02T04:04:33;93234.88;;;8.71;100.00
12789;BME280;6458;42.710;23.192;2024-03-02T04:07:00;93232.31;;;8.71;100.00
12789;BME280;6458;42.710;23.192;2024-03-02T04:09:27;93223.72;;;8.70;100.00
12789;BME280;6458;42.710;23.192;2024-03-02T04:11:54;93227.88;;;8.73;100.00
12789;BME280;6458;42.710;23.192;2024-03-02T04:14:20;93231.22;;;8.75;100.00
12789;BME280;6458;42.710;23.192;2024-03-02T04:16:47;93230.06;;;8.63;100.00
12789;BME280;6458;42.710;23.192;2024-03-02T04:19:15;93236.06;;;8.64;100.00
12789;BME280;6458;42.710;23.192;2024-03-02T04:21:43;93234.56;;;8.59;100.00
12789;BME280;6458;42.710;23.192;2024-03-02T04:24:32;93235.41;;;8.60;100.00
12789;BME280;6458;42.710;23.192;2024-03-02T04:27:00;93225.19;;;8.57;100.00
12789;BME280;6458;42.710;23.192;2024-03-02T04:29:27;93230.31;;;8.58;100.00
12789;BME280;6458;42.710;23.192;2024-03-02T04:31:54;93227.72;;;8.58;100.00
12789;BME280;6458;42.710;23.192;2024-03-02T04:34:21;93232.06;;;8.58;100.00
12789;BME280;6458;42.710;23.192;2024-03-02T04:36:50;93231.28;;;8.56;100.00
12789;BME280;6458;42.710;23.192;2024-03-02T04:39:17;93225.28;;;8.55;100.00
12789;BME280;6458;42.710;23.192;2024-03-02T04:41:44;93225.16;;;8.58;100.00
12789;BME280;6458;42.710;23.192;2024-03-02T04:44:11;93227.72;;;8.58;100.00
12789;BME280;6458;42.710;23.192;2024-03-02T04:46:38;93232.06;;;8.58;100.00
12789;BME280;6458;42.710;23.192;2024-03-02T04:49:08;93229.25;;;8.63;100.00
12789;BME280;6458;42.710;23.192;2024-03-02T04:51:35;93235.19;;;8.65;100.00
12789;BME280;6458;42.710;23.192;2024-03-02T04:54:03;93234.41;;;8.63;100.00
12789;BME280;6458;42.710;23.192;2024-03-02T04:56:31;93233.19;;;8.70;100.00
12789;BME280;6458;42.710;23.192;2024-03-02T04:59:09;93244.84;;;8.61;100.00
12789;BME280;6458;42.710;23.192;2024-03-02T05:01:37;93238.75;;;8.62;100.00
12789;BME280;6458;42.710;23.192;2024-03-02T05:04:08;93239.69;;;8.61;100.00
12789;BME280;6458;42.710;23.192;2024-03-02T05:06:37;93244.69;;;8.64;100.00
12789;BME280;6458;42.710;23.192;2024-03-02T05:09:22;93244.91;;;8.59;100.00
12789;BME280;6458;42.710;23.192;2024-03-02T05:11:49;93247.44;;;8.61;100.00
12789;BME280;6458;42.710;23.192;2024-03-02T05:14:48;93250.75;;;8.63;100.00
12789;BME280;6458;42.710;23.192;2024-03-02T05:17:15;93245.59;;;8.63;100.00
12789;BME280;6458;42.710;23.192;2024-03-02T05:20:00;93256.31;;;8.73;100.00
12789;BME280;6458;42.710;23.192;2024-03-02T05:22:35;93255.72;;;8.68;100.00
12789;BME280;6458;42.710;23.192;2024-03-02T05:25:09;93255.19;;;8.61;100.00
12789;BME280;6458;42.710;23.192;2024-03-02T05:30:32;93259.28;;;8.65;100.00
12789;BME280;6458;42.710;23.192;2024-03-02T05:33:01;93260.66;;;8.55;100.00
12789;BME280;6458;42.710;23.192;2024-03-02T05:35:55;93270.09;;;8.37;100.00
12789;BME280;6458;42.710;23.192;2024-03-02T05:38:29;93260.31;;;8.25;100.00
12789;BME280;6458;42.710;23.192;2024-03-02T05:40:57;93270.06;;;8.20;100.00
12789;BME280;6458;42.710;23.192;2024-03-02T05:43:24;93269.16;;;8.21;100.00
12789;BME280;6458;42.710;23.192;2024-03-02T05:45:51;93270.38;;;8.31;100.00
12789;BME280;6458;42.710;23.192;2024-03-02T05:48:18;93273.19;;;8.26;100.00
12789;BME280;6458;42.710;23.192;2024-03-02T05:50:45;93281.97;;;8.22;100.00
12789;BME280;6458;42.710;23.192;2024-03-02T05:53:17;93276.00;;;8.03;100.00
12789;BME280;6458;42.710;23.192;2024-03-02T05:55:50;93273.06;;;8.10;100.00
12789;BME280;6458;42.710;23.192;2024-03-02T05:58:22;93279.41;;;8.03;100.00
12789;BME280;6458;42.710;23.192;2024-03-02T06:00:59;93280.75;;;7.93;100.00
12789;BME280;6458;42.710;23.192;2024-03-02T06:03:38;93280.59;;;7.96;100.00
12789;BME280;6458;42.710;23.192;2024-03-02T06:06:05;93277.59;;;8.05;100.00
12789;BME280;6458;42.710;23.192;2024-03-02T06:09:00;93283.00;;;8.01;100.00
12789;BME280;6458;42.710;23.192;2024-03-02T06:11:27;93285.06;;;8.11;100.00
12789;BME280;6458;42.710;23.192;2024-03-02T06:13:56;93288.56;;;8.10;100.00
12789;BME280;6458;42.710;23.192;2024-03-02T06:16:23;93280.47;;;8.18;100.00
12789;BME280;6458;42.710;23.192;2024-03-02T06:18:49;93281.22;;;8.20;100.00
12789;BME280;6458;42.710;23.192;2024-03-02T06:21:17;93276.91;;;8.21;100.00
12789;BME280;6458;42.710;23.192;2024-03-02T06:24:00;93286.03;;;8.28;100.00
12789;BME280;6458;42.710;23.192;2024-03-02T06:26:27;93287.91;;;8.24;100.00
12789;BME280;6458;42.710;23.192;2024-03-02T06:28:57;93281.00;;;8.25;100.00
12789;BME280;6458;42.710;23.192;2024-03-02T06:31:23;93282.06;;;8.40;100.00
12789;BME280;6458;42.710;23.192;2024-03-02T06:33:50;93283.53;;;8.45;100.00
12789;BME280;6458;42.710;23.192;2024-03-02T06:36:17;93288.03;;;8.59;100.00
12789;BME280;6458;42.710;23.192;2024-03-02T06:38:50;93290.38;;;8.64;100.00
12789;BME280;6458;42.710;23.192;2024-03-02T06:41:22;93295.00;;;8.57;100.00
12789;BME280;6458;42.710;23.192;2024-03-02T06:43:49;93295.09;;;8.55;100.00
12789;BME280;6458;42.710;23.192;2024-03-02T06:46:21;93298.94;;;8.47;100.00
12789;BME280;6458;42.710;23.192;2024-03-02T06:48:48;93298.13;;;8.46;100.00
12789;BME280;6458;42.710;23.192;2024-03-02T06:51:15;93300.69;;;8.46;100.00
12789;BME280;6458;42.710;23.192;2024-03-02T06:53:42;93299.63;;;8.50;100.00
12789;BME280;6458;42.710;23.192;2024-03-02T06:56:35;93303.31;;;8.64;100.00
12789;BME280;6458;42.710;23.192;2024-03-02T06:59:02;93306.41;;;8.53;100.00
12789;BME280;6458;42.710;23.192;2024-03-02T07:01:31;93308.16;;;8.52;100.00
12789;BME280;6458;42.710;23.192;2024-03-02T07:03:58;93302.75;;;8.57;100.00
12789;BME280;6458;42.710;23.192;2024-03-02T07:06:25;93312.69;;;8.47;100.00
12789;BME280;6458;42.710;23.192;2024-03-02T07:08:52;93311.59;;;8.53;100.00
12789;BME280;6458;42.710;23.192;2024-03-02T07:11:18;93309.00;;;8.53;100.00
12789;BME280;6458;42.710;23.192;2024-03-02T07:13:45;93310.50;;;8.40;100.00
12789;BME280;6458;42.710;23.192;2024-03-02T07:16:12;93306.41;;;8.34;100.00
12789;BME280;6458;42.710;23.192;2024-03-02T07:18:54;93313.47;;;8.49;100.00
12789;BME280;6458;42.710;23.192;2024-03-02T07:21:30;93304.47;;;8.58;100.00
12789;BME280;6458;42.710;23.192;2024-03-02T07:24:02;93310.84;;;8.68;100.00
12789;BME280;6458;42.710;23.192;2024-03-02T07:26:30;93310.47;;;8.76;100.00
12789;BME280;6458;42.710;23.192;2024-03-02T07:28:57;93313.06;;;8.76;100.00
12789;BME280;6458;42.710;23.192;2024-03-02T07:31:24;93310.63;;;8.73;100.00
12789;BME280;6458;42.710;23.192;2024-03-02T07:33:51;93320.59;;;8.80;100.00
12789;BME280;6458;42.710;23.192;2024-03-02T07:36:20;93320.59;;;8.80;100.00
12789;BME280;6458;42.710;23.192;2024-03-02T07:38:47;93319.63;;;8.83;100.00
12789;BME280;6458;42.710;23.192;2024-03-02T07:41:15;93323.09;;;8.82;100.00
12789;BME280;6458;42.710;23.192;2024-03-02T07:43:42;93319.63;;;8.83;100.00
12789;BME280;6458;42.710;23.192;2024-03-02T07:46:09;93324.03;;;8.98;100.00
12789;BME280;6458;42.710;23.192;2024-03-02T07:48:39;93323.97;;;9.00;100.00
12789;BME280;6458;42.710;23.192;2024-03-02T07:51:06;93316.88;;;9.03;100.00
12789;BME280;6458;42.710;23.192;2024-03-02T07:53:34;93323.88;;;9.01;100.00
12789;BME280;6458;42.710;23.192;2024-03-02T07:56:04;93318.22;;;8.76;100.00
12789;BME280;6458;42.710;23.192;2024-03-02T07:58:34;93326.84;;;8.40;100.00
12789;BME280;6458;42.710;23.192;2024-03-02T08:01:01;93339.66;;;8.23;100.00
12789;BME280;6458;42.710;23.192;2024-03-02T08:03:29;93328.72;;;8.18;100.00
12789;BME280;6458;42.710;23.192;2024-03-02T08:05:57;93332.09;;;8.37;100.00
12789;BME280;6458;42.710;23.192;2024-03-02T08:08:24;93335.91;;;8.30;100.00
12789;BME280;6458;42.710;23.192;2024-03-02T08:10:52;93333.09;;;8.16;100.00
12789;BME280;6458;42.710;23.192;2024-03-02T08:13:42;93337.25;;;8.20;100.00
12789;BME280;6458;42.710;23.192;2024-03-02T08:16:16;93343.00;;;8.06;100.00
12789;BME280;6458;42.710;23.192;2024-03-02T08:18:45;93343.84;;;8.25;100.00
12789;BME280;6458;42.710;23.192;2024-03-02T08:21:31;93339.19;;;8.33;100.00
12789;BME280;6458;42.710;23.192;2024-03-02T08:24:01;93346.09;;;8.33;100.00
12789;BME280;6458;42.710;23.192;2024-03-02T08:26:29;93348.03;;;8.28;100.00
12789;BME280;6458;42.710;23.192;2024-03-02T08:28:59;93345.31;;;8.31;100.00
12789;BME280;6458;42.710;23.192;2024-03-02T08:31:55;93347.41;;;8.23;100.00
12789;BME280;6458;42.710;23.192;2024-03-02T08:34:48;93354.03;;;8.09;100.00
12789;BME280;6458;42.710;23.192;2024-03-02T08:37:15;93347.72;;;8.35;100.00
12789;BME280;6458;42.710;23.192;2024-03-02T08:39:42;93346.69;;;8.40;100.00
12789;BME280;6458;42.710;23.192;2024-03-02T08:42:14;93348.44;;;8.39;100.00
12789;BME280;6458;42.710;23.192;2024-03-02T08:44:41;93349.28;;;8.57;100.00
12789;BME280;6458;42.710;23.192;2024-03-02T08:47:09;93338.25;;;8.53;100.00
12789;BME280;6458;42.710;23.192;2024-03-02T08:49:36;93350.75;;;8.63;100.00
12789;BME280;6458;42.710;23.192;2024-03-02T08:52:03;93350.50;;;8.86;100.00
12789;BME280;6458;42.710;23.192;2024-03-02T08:54:30;93352.66;;;9.13;100.00
12789;BME280;6458;42.710;23.192;2024-03-02T08:56:59;93342.59;;;9.07;100.00
12789;BME280;6458;42.710;23.192;2024-03-02T08:59:27;93347.03;;;9.22;100.00
12789;BME280;6458;42.710;23.192;2024-03-02T09:01:54;93342.00;;;9.19;100.00
12789;BME280;6458;42.710;23.192;2024-03-02T09:04:21;93349.81;;;9.17;100.00
12789;BME280;6458;42.710;23.192;2024-03-02T09:06:48;93347.88;;;9.05;100.00
12789;BME280;6458;42.710;23.192;2024-03-02T09:09:15;93354.38;;;8.95;100.00
12789;BME280;6458;42.710;23.192;2024-03-02T09:11:42;93352.59;;;9.14;100.00
12789;BME280;6458;42.710;23.192;2024-03-02T09:14:11;93352.19;;;9.04;100.00
12789;BME280;6458;42.710;23.192;2024-03-02T09:16:42;93358.44;;;9.00;100.00
12789;BME280;6458;42.710;23.192;2024-03-02T09:19:09;93360.59;;;9.27;100.00
12789;BME280;6458;42.710;23.192;2024-03-02T09:21:36;93363.63;;;9.35;100.00
12789;BME280;6458;42.710;23.192;2024-03-02T09:24:04;93372.44;;;9.48;100.00
12789;BME280;6458;42.710;23.192;2024-03-02T09:26:32;93367.88;;;9.54;100.00
12789;BME280;6458;42.710;23.192;2024-03-02T09:28:59;93372.44;;;9.66;100.00
12789;BME280;6458;42.710;23.192;2024-03-02T09:31:26;93370.63;;;9.68;100.00
12789;BME280;6458;42.710;23.192;2024-03-02T09:33:54;93366.72;;;9.92;100.00
12789;BME280;6458;42.710;23.192;2024-03-02T09:36:27;93368.84;;;10.02;100.00
12789;BME280;6458;42.710;23.192;2024-03-02T09:38:54;93368.81;;;10.19;100.00
12789;BME280;6458;42.710;23.192;2024-03-02T09:41:23;93372.19;;;10.37;100.00
12789;BME280;6458;42.710;23.192;2024-03-02T09:43:50;93367.69;;;10.40;100.00
12789;BME280;6458;42.710;23.192;2024-03-02T09:46:28;93363.59;;;10.68;100.00
12789;BME280;6458;42.710;23.192;2024-03-02T09:49:04;93364.22;;;10.87;100.00
12789;BME280;6458;42.710;23.192;2024-03-02T09:51:31;93365.06;;;11.04;100.00
12789;BME280;6458;42.710;23.192;2024-03-02T09:54:00;93365.63;;;11.09;100.00
12789;BME280;6458;42.710;23.192;2024-03-02T09:56:30;93367.81;;;11.17;100.00
12789;BME280;6458;42.710;23.192;2024-03-02T09:58:57;93366.69;;;11.21;100.00
12789;BME280;6458;42.710;23.192;2024-03-02T10:01:24;93371.41;;;11.14;100.00
12789;BME280;6458;42.710;23.192;2024-03-02T10:03:51;93368.22;;;11.09;100.00
12789;BME280;6458;42.710;23.192;2024-03-02T10:06:22;93361.38;;;11.08;100.00
12789;BME280;6458;42.710;23.192;2024-03-02T10:08:53;93360.53;;;11.07;100.00
12789;BME280;6458;42.710;23.192;2024-03-02T10:11:27;93363.88;;;11.09;100.00
12789;BME280;6458;42.710;23.192;2024-03-02T10:14:06;93370.78;;;11.25;100.00
12789;BME280;6458;42.710;23.192;2024-03-02T10:16:35;93359.72;;;11.07;100.00
12789;BME280;6458;42.710;23.192;2024-03-02T10:19:16;93360.94;;;11.16;100.00
12789;BME280;6458;42.710;23.192;2024-03-02T10:21:45;93356.63;;;11.30;100.00
12789;BME280;6458;42.710;23.192;2024-03-02T10:24:35;93356.84;;;11.42;100.00
12789;BME280;6458;42.710;23.192;2024-03-02T10:27:10;93357.22;;;11.50;100.00
12789;BME280;6458;42.710;23.192;2024-03-02T10:30:04;93360.31;;;11.87;100.00
12789;BME280;6458;42.710;23.192;2024-03-02T10:32:48;93359.19;;;12.34;100.00
12789;BME280;6458;42.710;23.192;2024-03-02T10:35:20;93360.84;;;12.35;100.00
12789;BME280;6458;42.710;23.192;2024-03-02T10:37:50;93362.44;;;12.37;100.00
12789;BME280;6458;42.710;23.192;2024-03-02T10:40:46;93355.19;;;12.42;100.00
12789;BME280;6458;42.710;23.192;2024-03-02T10:43:31;93354.56;;;12.24;100.00
12789;BME280;6458;42.710;23.192;2024-03-02T10:45:59;93362.91;;;12.01;100.00
12789;BME280;6458;42.710;23.192;2024-03-02T10:48:27;93357.16;;;11.96;100.00
12789;BME280;6458;42.710;23.192;2024-03-02T10:50:55;93349.72;;;11.90;100.00
12789;BME280;6458;42.710;23.192;2024-03-02T10:53:30;93349.91;;;11.87;100.00
12789;BME280;6458;42.710;23.192;2024-03-02T10:56:33;93353.25;;;11.89;100.00
12789;BME280;6458;42.710;23.192;2024-03-02T10:59:16;93344.28;;;11.64;100.00
12789;BME280;6458;42.710;23.192;2024-03-02T11:01:47;93350.31;;;11.65;100.00
12789;BME280;6458;42.710;23.192;2024-03-02T11:04:16;93341.56;;;11.66;100.00
12789;BME280;6458;42.710;23.192;2024-03-02T11:06:48;93347.06;;;11.61;100.00
12789;BME280;6458;42.710;23.192;2024-03-02T11:09:20;93334.00;;;11.77;100.00
12789;BME280;6458;42.710;23.192;2024-03-02T11:11:54;93340.44;;;12.00;100.00
12789;BME280;6458;42.710;23.192;2024-03-02T11:14:34;93335.78;;;11.91;100.00
12789;BME280;6458;42.710;23.192;2024-03-02T11:17:05;93330.06;;;11.86;100.00
12789;BME280;6458;42.710;23.192;2024-03-02T11:19:33;93341.00;;;12.05;100.00
12789;BME280;6458;42.710;23.192;2024-03-02T11:22:02;93338.91;;;11.81;100.00
12789;BME280;6458;42.710;23.192;2024-03-02T11:24:34;93337.75;;;11.87;100.00
12789;BME280;6458;42.710;23.192;2024-03-02T11:27:03;93332.47;;;11.89;100.00
12789;BME280;6458;42.710;23.192;2024-03-02T11:29:45;93336.47;;;11.78;100.00
12789;BME280;6458;42.710;23.192;2024-03-02T11:32:17;93330.63;;;11.60;100.00
12789;BME280;6458;42.710;23.192;2024-03-02T11:34:46;93321.88;;;11.47;100.00
12789;BME280;6458;42.710;23.192;2024-03-02T11:37:15;93325.09;;;11.67;100.00
12789;BME280;6458;42.710;23.192;2024-03-02T11:39:45;93328.63;;;11.80;100.00
12789;BME280;6458;42.710;23.192;2024-03-02T11:42:13;93325.56;;;11.88;100.00
12789;BME280;6458;42.710;23.192;2024-03-02T11:44:45;93334.53;;;11.82;100.00
12789;BME280;6458;42.710;23.192;2024-03-02T11:50:36;93333.47;;;11.42;100.00
12789;BME280;6458;42.710;23.192;2024-03-02T11:56:30;93330.47;;;11.64;100.00
12789;BME280;6458;42.710;23.192;2024-03-02T12:02:26;93328.75;;;11.93;100.00
12789;BME280;6458;42.710;23.192;2024-03-02T12:04:56;93320.56;;;11.85;100.00
12789;BME280;6458;42.710;23.192;2024-03-02T12:07:25;93327.84;;;11.78;100.00
12789;BME280;6458;42.710;23.192;2024-03-02T12:10:00;93326.72;;;11.53;100.00
12789;BME280;6458;42.710;23.192;2024-03-02T12:12:40;93325.16;;;11.51;100.00
12789;BME280;6458;42.710;23.192;2024-03-02T12:15:15;93323.22;;;11.54;100.00
12789;BME280;6458;42.710;23.192;2024-03-02T12:17:42;93334.31;;;11.56;100.00
12789;BME280;6458;42.710;23.192;2024-03-02T12:26:44;93332.00;;;11.07;100.00
12789;BME280;6458;42.710;23.192;2024-03-02T12:29:14;93322.69;;;11.03;100.00
12789;BME280;6458;42.710;23.192;2024-03-02T12:31:44;93322.97;;;10.99;100.00
12789;BME280;6458;42.710;23.192;2024-03-02T12:34:21;93322.38;;;10.94;100.00
12789;BME280;6458;42.710;23.192;2024-03-02T12:36:56;93322.53;;;10.90;100.00
12789;BME280;6458;42.710;23.192;2024-03-02T12:39:39;93317.91;;;10.81;100.00
12789;BME280;6458;42.710;23.192;2024-03-02T12:42:06;93326.25;;;10.86;100.00
12789;BME280;6458;42.710;23.192;2024-03-02T12:44:37;93325.91;;;10.93;100.00
12789;BME280;6458;42.710;23.192;2024-03-02T12:47:07;93329.94;;;10.82;100.00
12789;BME280;6458;42.710;23.192;2024-03-02T12:49:35;93331.03;;;10.78;100.00
12789;BME280;6458;42.710;23.192;2024-03-02T12:52:08;93339.66;;;10.79;100.00
12789;BME280;6458;42.710;23.192;2024-03-02T12:54:37;93329.88;;;10.68;100.00
12789;BME280;6458;42.710;23.192;2024-03-02T12:57:07;93332.31;;;10.55;100.00
12789;BME280;6458;42.710;23.192;2024-03-02T12:59:45;93338.16;;;10.59;100.00
12789;BME280;6458;42.710;23.192;2024-03-02T13:02:17;93338.47;;;10.53;100.00
12789;BME280;6458;42.710;23.192;2024-03-02T13:04:44;93334.81;;;10.41;100.00
12789;BME280;6458;42.710;23.192;2024-03-02T13:07:14;93336.06;;;10.34;100.00
12789;BME280;6458;42.710;23.192;2024-03-02T13:09:45;93330.97;;;10.48;100.00
12789;BME280;6458;42.710;23.192;2024-03-02T13:12:15;93338.41;;;10.54;100.00
12789;BME280;6458;42.710;23.192;2024-03-02T13:14:51;93337.41;;;10.57;100.00
12789;BME280;6458;42.710;23.192;2024-03-02T13:17:18;93336.00;;;10.51;100.00
12789;BME280;6458;42.710;23.192;2024-03-02T13:20:11;93329.53;;;10.58;100.00
12789;BME280;6458;42.710;23.192;2024-03-02T13:22:44;93340.25;;;10.52;100.00
12789;BME280;6458;42.710;23.192;2024-03-02T13:25:12;93350.28;;;10.42;100.00
12789;BME280;6458;42.710;23.192;2024-03-02T13:27:40;93341.00;;;10.54;100.00
12789;BME280;6458;42.710;23.192;2024-03-02T13:30:10;93341.44;;;10.62;100.00
12789;BME280;6458;42.710;23.192;2024-03-02T13:32:37;93341.66;;;10.58;100.00
12789;BME280;6458;42.710;23.192;2024-03-02T13:35:13;93339.56;;;10.64;100.00
12789;BME280;6458;42.710;23.192;2024-03-02T13:37:41;93341.44;;;10.62;100.00